sensor_id;sensor_type;location;lat;lon;timestamp;pressure;altitude;pressure_sealevel;temperature;humidity
67842;BME280;54642;59.126;37.876;2023-01-29T00:02:09;99860.53;;;-6.48;78.59
67842;BME280;54642;59.126;37.876;2023-01-29T00:04:35;99871.59;;;-6.46;78.90
67842;BME280;54642;59.126;37.876;2023-01-29T00:07:01;99855.19;;;-6.39;78.74
67842;BME280;54642;59.126;37.876;2023-01-29T00:09:27;99851.91;;;-6.38;78.55
67842;BME280;54642;59.126;37.876;2023-01-29T00:11:53;99837.34;;;-6.42;78.62
67842;BME280;54642;59.126;37.876;2023-01-29T00:14:20;99812.00;;;-6.59;78.24
67842;BME280;54642;59.126;37.876;2023-01-29T00:16:46;99837.75;;;-6.49;78.36
67842;BME280;54642;59.126;37.876;2023-01-29T00:19:12;99862.22;;;-6.34;78.68
67842;BME280;54642;59.126;37.876;2023-01-29T00:21:38;99852.25;;;-6.32;78.71
67842;BME280;54642;59.126;37.876;2023-01-29T00:24:04;99842.91;;;-6.33;78.71
67842;BME280;54642;59.126;37.876;2023-01-29T00:26:30;99850.44;;;-6.35;78.55
67842;BME280;54642;59.126;37.876;2023-01-29T00:28:56;99769.91;;;-6.75;78.35
67842;BME280;54642;59.126;37.876;2023-01-29T00:31:23;99785.75;;;-6.62;78.55
67842;BME280;54642;59.126;37.876;2023-01-29T00:33:49;99832.94;;;-6.32;78.65
67842;BME280;54642;59.126;37.876;2023-01-29T00:36:18;99824.50;;;-6.32;78.49
67842;BME280;54642;59.126;37.876;2023-01-29T00:38:44;99820.31;;;-6.32;78.67
67842;BME280;54642;59.126;37.876;2023-01-29T00:41:26;99732.41;;;-6.70;78.52
67842;BME280;54642;59.126;37.876;2023-01-29T00:44:11;99805.47;;;-6.27;78.33
67842;BME280;54642;59.126;37.876;2023-01-29T00:46:57;99812.41;;;-6.23;78.55
67842;BME280;54642;59.126;37.876;2023-01-29T00:49:22;99712.75;;;-6.76;78.70
67842;BME280;54642;59.126;37.876;2023-01-29T00:51:49;99809.22;;;-6.20;78.77
67842;BME280;54642;59.126;37.876;2023-01-29T00:54:33;99782.59;;;-6.30;78.54
67842;BME280;54642;59.126;37.876;2023-01-29T00:57:01;99734.69;;;-6.60;78.64
67842;BME280;54642;59.126;37.876;2023-01-29T00:59:27;99783.97;;;-6.35;78.55
67842;BME280;54642;59.126;37.876;2023-01-29T01:01:53;99792.88;;;-6.27;78.39
67842;BME280;54642;59.126;37.876;2023-01-29T01:04:37;99779.47;;;-6.26;78.59
67842;BME280;54642;59.126;37.876;2023-01-29T01:07:04;99780.34;;;-6.25;78.57
67842;BME280;54642;59.126;37.876;2023-01-29T01:09:30;99781.22;;;-6.25;78.58
67842;BME280;54642;59.126;37.876;2023-01-29T01:12:15;99762.69;;;-6.25;78.34
67842;BME280;54642;59.126;37.876;2023-01-29T01:14:41;99733.31;;;-6.40;78.72
67842;BME280;54642;59.126;37.876;2023-01-29T01:17:08;99729.44;;;-6.33;78.71
67842;BME280;54642;59.126;37.876;2023-01-29T01:19:34;99740.63;;;-6.29;78.52
67842;BME280;54642;59.126;37.876;2023-01-29T01:22:00;99752.69;;;-6.24;78.75
67842;BME280;54642;59.126;37.876;2023-01-29T01:24:26;99742.78;;;-6.36;78.52
67842;BME280;54642;59.126;37.876;2023-01-29T01:26:52;99734.06;;;-6.41;78.57
67842;BME280;54642;59.126;37.876;2023-01-29T01:29:18;99743.91;;;-6.30;78.53
67842;BME280;54642;59.126;37.876;2023-01-29T01:31:44;99762.69;;;-6.25;78.64
67842;BME280;54642;59.126;37.876;2023-01-29T01:34:10;99752.59;;;-6.25;78.91
67842;BME280;54642;59.126;37.876;2023-01-29T01:36:36;99729.81;;;-6.42;78.73
67842;BME280;54642;59.126;37.876;2023-01-29T01:39:02;99743.19;;;-6.28;78.75
67842;BME280;54642;59.126;37.876;2023-01-29T01:41:29;99737.63;;;-6.37;78.68
67842;BME280;54642;59.126;37.876;2023-01-29T01:43:57;99687.91;;;-6.69;78.78
67842;BME280;54642;59.126;37.876;2023-01-29T01:46:25;99735.38;;;-6.33;78.70
67842;BME280;54642;59.126;37.876;2023-01-29T01:51:33;99743.28;;;-6.26;78.77
67842;BME280;54642;59.126;37.876;2023-01-29T01:54:07;99680.78;;;-6.62;78.64
67842;BME280;54642;59.126;37.876;2023-01-29T01:56:39;99743.72;;;-6.34;78.53
67842;BME280;54642;59.126;37.876;2023-01-29T01:59:11;99667.84;;;-6.68;78.81
67842;BME280;54642;59.126;37.876;2023-01-29T02:01:39;99748.41;;;-6.25;78.79
67842;BME280;54642;59.126;37.876;2023-01-29T02:04:15;99732.78;;;-6.34;78.76
67842;BME280;54642;59.126;37.876;2023-01-29T02:07:03;99661.03;;;-6.69;78.68
67842;BME280;54642;59.126;37.876;2023-01-29T02:09:58;99736.25;;;-6.32;78.87
67842;BME280;54642;59.126;37.876;2023-01-29T02:12:25;99721.03;;;-6.34;78.78
67842;BME280;54642;59.126;37.876;2023-01-29T02:14:56;99642.31;;;-6.74;78.74
67842;BME280;54642;59.126;37.876;2023-01-29T02:17:22;99693.31;;;-6.48;78.78
67842;BME280;54642;59.126;37.876;2023-01-29T02:20:16;99699.03;;;-6.36;78.98
67842;BME280;54642;59.126;37.876;2023-01-29T02:33:39;99678.38;;;-6.45;78.91
67842;BME280;54642;59.126;37.876;2023-01-29T02:39:25;99690.53;;;-6.38;78.72
67842;BME280;54642;59.126;37.876;2023-01-29T02:42:25;99673.22;;;-6.47;78.78
67842;BME280;54642;59.126;37.876;2023-01-29T02:47:50;99620.22;;;-6.78;78.67
67842;BME280;54642;59.126;37.876;2023-01-29T02:50:24;99628.13;;;-6.72;78.78
67842;BME280;54642;59.126;37.876;2023-01-29T02:53:07;99678.59;;;-6.41;78.64
67842;BME280;54642;59.126;37.876;2023-01-29T02:55:41;99670.81;;;-6.45;78.81
67842;BME280;54642;59.126;37.876;2023-01-29T03:00:43;99658.34;;;-6.42;78.73
67842;BME280;54642;59.126;37.876;2023-01-29T03:03:20;99566.00;;;-6.86;78.58
67842;BME280;54642;59.126;37.876;2023-01-29T03:08:40;99651.22;;;-6.49;78.74
67842;BME280;54642;59.126;37.876;2023-01-29T03:11:10;99651.31;;;-6.48;78.64
67842;BME280;54642;59.126;37.876;2023-01-29T03:13:52;99649.75;;;-6.46;78.84
67842;BME280;54642;59.126;37.876;2023-01-29T03:16:30;99643.22;;;-6.42;78.79
67842;BME280;54642;59.126;37.876;2023-01-29T03:19:08;99621.47;;;-6.40;78.70
67842;BME280;54642;59.126;37.876;2023-01-29T03:21:51;99614.53;;;-6.44;78.75
67842;BME280;54642;59.126;37.876;2023-01-29T03:27:28;99608.53;;;-6.46;78.55
67842;BME280;54642;59.126;37.876;2023-01-29T03:30:16;99589.44;;;-6.58;78.62
67842;BME280;54642;59.126;37.876;2023-01-29T03:33:13;99619.75;;;-6.41;78.63
67842;BME280;54642;59.126;37.876;2023-01-29T03:35:57;99629.84;;;-6.41;78.55
67842;BME280;54642;59.126;37.876;2023-01-29T03:38:25;99625.66;;;-6.41;78.60
67842;BME280;54642;59.126;37.876;2023-01-29T03:41:18;99629.94;;;-6.40;78.56
67842;BME280;54642;59.126;37.876;2023-01-29T03:44:03;99578.34;;;-6.61;78.64
67842;BME280;54642;59.126;37.876;2023-01-29T03:46:40;99592.28;;;-6.52;78.56
67842;BME280;54642;59.126;37.876;2023-01-29T03:50:04;99599.41;;;-6.44;78.54
67842;BME280;54642;59.126;37.876;2023-01-29T03:57:44;99601.66;;;-6.34;78.69
67842;BME280;54642;59.126;37.876;2023-01-29T04:00:21;99596.63;;;-6.34;78.69
67842;BME280;54642;59.126;37.876;2023-01-29T04:05:49;99579.84;;;-6.34;78.72
67842;BME280;54642;59.126;37.876;2023-01-29T04:08:28;99510.47;;;-6.73;78.60
67842;BME280;54642;59.126;37.876;2023-01-29T04:11:02;99562.19;;;-6.34;78.62
67842;BME280;54642;59.126;37.876;2023-01-29T04:13:32;99555.41;;;-6.35;78.65
67842;BME280;54642;59.126;37.876;2023-01-29T04:16:00;99559.06;;;-6.29;78.64
67842;BME280;54642;59.126;37.876;2023-01-29T04:18:47;99499.31;;;-6.62;78.59
67842;BME280;54642;59.126;37.876;2023-01-29T04:21:15;99522.94;;;-6.45;78.67
67842;BME280;54642;59.126;37.876;2023-01-29T04:23:42;99544.63;;;-6.32;78.63
67842;BME280;54642;59.126;37.876;2023-01-29T04:26:28;99467.53;;;-6.75;78.70
67842;BME280;54642;59.126;37.876;2023-01-29T04:29:23;99535.31;;;-6.33;78.90
67842;BME280;54642;59.126;37.876;2023-01-29T04:32:27;99547.13;;;-6.32;78.57
67842;BME280;54642;59.126;37.876;2023-01-29T04:35:08;99541.31;;;-6.31;78.78
67842;BME280;54642;59.126;37.876;2023-01-29T04:40:55;99534.63;;;-6.30;78.69
67842;BME280;54642;59.126;37.876;2023-01-29T04:43:38;99535.38;;;-6.32;78.73
67842;BME280;54642;59.126;37.876;2023-01-29T04:46:17;99531.91;;;-6.34;78.84
67842;BME280;54642;59.126;37.876;2023-01-29T04:54:43;99507.75;;;-6.30;78.96
67842;BME280;54642;59.126;37.876;2023-01-29T04:57:23;99483.78;;;-6.38;79.13
67842;BME280;54642;59.126;37.876;2023-01-29T05:00:05;99488.03;;;-6.21;79.24
67842;BME280;54642;59.126;37.876;2023-01-29T05:02:47;99466.00;;;-6.25;79.01
67842;BME280;54642;59.126;37.876;2023-01-29T05:05:15;99344.63;;;-6.97;78.98
67842;BME280;54642;59.126;37.876;2023-01-29T05:07:45;99484.84;;;-6.18;78.90
67842;BME280;54642;59.126;37.876;2023-01-29T05:10:13;99462.34;;;-6.30;78.98
67842;BME280;54642;59.126;37.876;2023-01-29T05:12:44;99476.41;;;-6.19;79.16
67842;BME280;54642;59.126;37.876;2023-01-29T05:15:19;99459.78;;;-6.15;79.28
67842;BME280;54642;59.126;37.876;2023-01-29T05:17:47;99462.53;;;-6.10;79.18
67842;BME280;54642;59.126;37.876;2023-01-29T05:20:13;99435.25;;;-6.18;79.10
67842;BME280;54642;59.126;37.876;2023-01-29T05:22:40;99453.38;;;-6.08;79.17
67842;BME280;54642;59.126;37.876;2023-01-29T05:25:25;99361.81;;;-6.57;79.12
67842;BME280;54642;59.126;37.876;2023-01-29T05:27:52;99449.34;;;-6.05;79.19
67842;BME280;54642;59.126;37.876;2023-01-29T05:30:45;99438.25;;;-6.08;79.14
67842;BME280;54642;59.126;37.876;2023-01-29T05:33:26;99450.25;;;-6.04;79.19
67842;BME280;54642;59.126;37.876;2023-01-29T05:35:52;99450.28;;;-6.03;79.21
67842;BME280;54642;59.126;37.876;2023-01-29T05:38:19;99433.28;;;-6.07;79.27
67842;BME280;54642;59.126;37.876;2023-01-29T05:40:45;99359.06;;;-6.45;79.21
67842;BME280;54642;59.126;37.876;2023-01-29T05:43:23;99381.50;;;-6.33;79.15
67842;BME280;54642;59.126;37.876;2023-01-29T05:45:53;99437.16;;;-5.97;79.35
67842;BME280;54642;59.126;37.876;2023-01-29T05:48:19;99441.41;;;-5.96;79.26
67842;BME280;54642;59.126;37.876;2023-01-29T05:50:44;99427.59;;;-6.03;79.47
67842;BME280;54642;59.126;37.876;2023-01-29T05:53:10;99428.63;;;-5.99;79.35
67842;BME280;54642;59.126;37.876;2023-01-29T05:55:36;99428.78;;;-5.96;79.31
67842;BME280;54642;59.126;37.876;2023-01-29T05:58:02;99426.25;;;-5.96;79.22
67842;BME280;54642;59.126;37.876;2023-01-29T06:00:28;99377.09;;;-6.21;79.42
67842;BME280;54642;59.126;37.876;2023-01-29T06:02:54;99431.50;;;-5.91;79.29
67842;BME280;54642;59.126;37.876;2023-01-29T06:05:21;99436.78;;;-5.87;79.48
67842;BME280;54642;59.126;37.876;2023-01-29T06:07:47;99407.22;;;-5.89;79.36
67842;BME280;54642;59.126;37.876;2023-01-29T06:10:14;99426.59;;;-5.88;79.24
67842;BME280;54642;59.126;37.876;2023-01-29T06:12:41;99420.00;;;-5.86;79.43
67842;BME280;54642;59.126;37.876;2023-01-29T06:15:08;99400.50;;;-5.89;79.46
67842;BME280;54642;59.126;37.876;2023-01-29T06:17:35;99401.44;;;-5.87;79.43
67842;BME280;54642;59.126;37.876;2023-01-29T06:20:01;99346.22;;;-6.17;79.48
67842;BME280;54642;59.126;37.876;2023-01-29T06:22:28;99417.06;;;-5.78;79.71
67842;BME280;54642;59.126;37.876;2023-01-29T06:24:54;99416.91;;;-5.81;79.50
67842;BME280;54642;59.126;37.876;2023-01-29T06:27:20;99411.22;;;-5.77;79.52
67842;BME280;54642;59.126;37.876;2023-01-29T06:29:46;99402.53;;;-5.82;79.35
67842;BME280;54642;59.126;37.876;2023-01-29T06:32:12;99338.72;;;-6.15;79.32
67842;BME280;54642;59.126;37.876;2023-01-29T06:34:38;99390.59;;;-5.86;79.30
67842;BME280;54642;59.126;37.876;2023-01-29T06:37:04;99395.50;;;-5.71;79.59
67842;BME280;54642;59.126;37.876;2023-01-29T06:39:30;99405.69;;;-5.69;79.42
67842;BME280;54642;59.126;37.876;2023-01-29T06:41:56;99355.25;;;-6.04;79.44
67842;BME280;54642;59.126;37.876;2023-01-29T06:44:22;99403.22;;;-5.68;79.31
67842;BME280;54642;59.126;37.876;2023-01-29T06:46:48;99367.88;;;-5.86;79.57
67842;BME280;54642;59.126;37.876;2023-01-29T06:49:14;99360.66;;;-5.78;79.40
67842;BME280;54642;59.126;37.876;2023-01-29T06:51:40;99386.59;;;-5.64;79.34
67842;BME280;54642;59.126;37.876;2023-01-29T06:54:08;99385.94;;;-5.60;79.39
67842;BME280;54642;59.126;37.876;2023-01-29T06:56:34;99381.31;;;-5.51;79.43
67842;BME280;54642;59.126;37.876;2023-01-29T06:59:00;99381.56;;;-5.46;79.41
67842;BME280;54642;59.126;37.876;2023-01-29T07:01:27;99380.81;;;-5.44;79.13
67842;BME280;54642;59.126;37.876;2023-01-29T07:03:53;99380.81;;;-5.44;79.26
67842;BME280;54642;59.126;37.876;2023-01-29T07:06:19;99382.56;;;-5.43;79.22
67842;BME280;54642;59.126;37.876;2023-01-29T07:08:45;99322.53;;;-5.84;79.40
67842;BME280;54642;59.126;37.876;2023-01-29T07:11:11;99385.38;;;-5.37;79.30
67842;BME280;54642;59.126;37.876;2023-01-29T07:13:37;99350.25;;;-5.50;79.35
67842;BME280;54642;59.126;37.876;2023-01-29T07:16:04;99369.34;;;-5.37;79.38
67842;BME280;54642;59.126;37.876;2023-01-29T07:18:34;99361.00;;;-5.36;79.36
67842;BME280;54642;59.126;37.876;2023-01-29T07:21:03;99372.19;;;-5.31;79.38
67842;BME280;54642;59.126;37.876;2023-01-29T07:23:31;99348.66;;;-5.48;79.44
67842;BME280;54642;59.126;37.876;2023-01-29T07:26:02;99369.09;;;-5.25;79.57
67842;BME280;54642;59.126;37.876;2023-01-29T07:28:29;99366.72;;;-5.22;79.35
67842;BME280;54642;59.126;37.876;2023-01-29T07:30:58;99352.84;;;-5.30;79.49
67842;BME280;54642;59.126;37.876;2023-01-29T07:33:24;99362.59;;;-5.20;79.08
67842;BME280;54642;59.126;37.876;2023-01-29T07:35:50;99364.38;;;-5.18;79.28
67842;BME280;54642;59.126;37.876;2023-01-29T07:38:16;99348.38;;;-5.18;79.46
67842;BME280;54642;59.126;37.876;2023-01-29T07:40:42;99354.84;;;-5.23;79.33
67842;BME280;54642;59.126;37.876;2023-01-29T07:43:09;99345.09;;;-5.15;79.31
67842;BME280;54642;59.126;37.876;2023-01-29T07:45:38;99341.72;;;-5.16;79.36
67842;BME280;54642;59.126;37.876;2023-01-29T07:48:05;99345.19;;;-5.14;79.44
67842;BME280;54642;59.126;37.876;2023-01-29T07:50:33;99303.94;;;-5.32;79.30
67842;BME280;54642;59.126;37.876;2023-01-29T07:53:00;99348.00;;;-5.08;79.38
67842;BME280;54642;59.126;37.876;2023-01-29T07:55:26;99326.91;;;-5.08;79.36
67842;BME280;54642;59.126;37.876;2023-01-29T07:57:56;99214.53;;;-5.73;79.28
67842;BME280;54642;59.126;37.876;2023-01-29T08:00:22;99337.50;;;-4.98;79.33
67842;BME280;54642;59.126;37.876;2023-01-29T08:02:49;99313.34;;;-5.10;79.48
67842;BME280;54642;59.126;37.876;2023-01-29T08:05:15;99330.56;;;-5.02;79.27
67842;BME280;54642;59.126;37.876;2023-01-29T08:07:41;99349.53;;;-4.92;79.44
67842;BME280;54642;59.126;37.876;2023-01-29T08:10:07;99314.03;;;-4.95;79.07
67842;BME280;54642;59.126;37.876;2023-01-29T08:12:33;99318.88;;;-5.00;79.24
67842;BME280;54642;59.126;37.876;2023-01-29T08:14:59;99318.44;;;-4.91;79.11
67842;BME280;54642;59.126;37.876;2023-01-29T08:17:25;99323.81;;;-4.83;79.36
67842;BME280;54642;59.126;37.876;2023-01-29T08:19:51;99316.81;;;-4.89;79.48
67842;BME280;54642;59.126;37.876;2023-01-29T08:22:17;99302.06;;;-4.80;79.25
67842;BME280;54642;59.126;37.876;2023-01-29T08:24:43;99310.53;;;-4.79;79.30
67842;BME280;54642;59.126;37.876;2023-01-29T08:27:09;99304.59;;;-4.80;79.22
67842;BME280;54642;59.126;37.876;2023-01-29T08:29:35;99285.66;;;-4.89;79.19
67842;BME280;54642;59.126;37.876;2023-01-29T08:32:01;99276.31;;;-4.90;79.26
67842;BME280;54642;59.126;37.876;2023-01-29T08:34:26;99306.66;;;-4.71;79.36
67842;BME280;54642;59.126;37.876;2023-01-29T08:36:52;99289.44;;;-4.80;79.50
67842;BME280;54642;59.126;37.876;2023-01-29T08:39:18;99294.69;;;-4.75;79.48
67842;BME280;54642;59.126;37.876;2023-01-29T08:41:44;99293.25;;;-4.70;79.24
67842;BME280;54642;59.126;37.876;2023-01-29T08:44:10;99298.44;;;-4.67;79.46
67842;BME280;54642;59.126;37.876;2023-01-29T08:46:36;99294.31;;;-4.65;79.40
67842;BME280;54642;59.126;37.876;2023-01-29T08:49:05;99277.25;;;-4.69;79.26
67842;BME280;54642;59.126;37.876;2023-01-29T08:51:32;99296.84;;;-4.65;79.36
67842;BME280;54642;59.126;37.876;2023-01-29T08:53:58;99289.63;;;-4.55;79.38
67842;BME280;54642;59.126;37.876;2023-01-29T08:56:24;99288.72;;;-4.57;79.14
67842;BME280;54642;59.126;37.876;2023-01-29T08:58:50;99281.44;;;-4.50;79.17
67842;BME280;54642;59.126;37.876;2023-01-29T09:01:16;99286.56;;;-4.48;79.24
67842;BME280;54642;59.126;37.876;2023-01-29T09:03:42;99208.31;;;-4.86;79.05
67842;BME280;54642;59.126;37.876;2023-01-29T09:06:10;99275.63;;;-4.47;79.16
67842;BME280;54642;59.126;37.876;2023-01-29T09:08:37;99280.22;;;-4.38;79.19
67842;BME280;54642;59.126;37.876;2023-01-29T09:11:03;99277.75;;;-4.37;79.20
67842;BME280;54642;59.126;37.876;2023-01-29T09:13:30;99262.44;;;-4.40;79.23
67842;BME280;54642;59.126;37.876;2023-01-29T09:16:00;99276.44;;;-4.29;79.36
67842;BME280;54642;59.126;37.876;2023-01-29T09:18:28;99202.47;;;-4.64;79.15
67842;BME280;54642;59.126;37.876;2023-01-29T09:20:54;99203.66;;;-4.55;79.08
67842;BME280;54642;59.126;37.876;2023-01-29T09:23:20;99250.72;;;-4.18;79.21
67842;BME280;54642;59.126;37.876;2023-01-29T09:25:46;99192.63;;;-4.57;78.82
67842;BME280;54642;59.126;37.876;2023-01-29T09:28:12;99258.41;;;-4.15;78.92
67842;BME280;54642;59.126;37.876;2023-01-29T09:30:38;99260.44;;;-4.07;78.78
67842;BME280;54642;59.126;37.876;2023-01-29T09:33:05;99258.13;;;-4.02;78.99
67842;BME280;54642;59.126;37.876;2023-01-29T09:35:32;99260.75;;;-3.99;78.80
67842;BME280;54642;59.126;37.876;2023-01-29T09:37:58;99260.88;;;-3.96;78.77
67842;BME280;54642;59.126;37.876;2023-01-29T09:40:31;99250.81;;;-3.94;78.83
67842;BME280;54642;59.126;37.876;2023-01-29T09:43:13;99245.97;;;-3.90;78.85
67842;BME280;54642;59.126;37.876;2023-01-29T09:45:55;99244.28;;;-3.89;78.93
67842;BME280;54642;59.126;37.876;2023-01-29T09:48:27;99229.88;;;-3.90;78.92
67842;BME280;54642;59.126;37.876;2023-01-29T09:50:57;99241.88;;;-3.86;78.90
67842;BME280;54642;59.126;37.876;2023-01-29T09:56:29;99224.44;;;-3.78;78.75
67842;BME280;54642;59.126;37.876;2023-01-29T09:58:57;99238.94;;;-3.74;78.86
67842;BME280;54642;59.126;37.876;2023-01-29T10:02:33;99223.06;;;-3.70;78.76
67842;BME280;54642;59.126;37.876;2023-01-29T10:21:36;99225.34;;;-3.55;78.50
67842;BME280;54642;59.126;37.876;2023-01-29T10:24:35;99229.56;;;-3.54;78.65
67842;BME280;54642;59.126;37.876;2023-01-29T10:27:14;99213.53;;;-3.55;78.70
67842;BME280;54642;59.126;37.876;2023-01-29T10:29:42;99198.00;;;-3.64;78.84
67842;BME280;54642;59.126;37.876;2023-01-29T10:32:18;99220.22;;;-3.57;78.80
67842;BME280;54642;59.126;37.876;2023-01-29T10:34:59;99208.34;;;-3.58;78.81
67842;BME280;54642;59.126;37.876;2023-01-29T10:37:36;99200.72;;;-3.59;78.81
67842;BME280;54642;59.126;37.876;2023-01-29T10:43:21;99198.97;;;-3.60;78.79
67842;BME280;54642;59.126;37.876;2023-01-29T10:46:12;99196.09;;;-3.70;78.96
67842;BME280;54642;59.126;37.876;2023-01-29T11:00:27;99200.13;;;-3.52;79.11
67842;BME280;54642;59.126;37.876;2023-01-29T11:02:55;99157.22;;;-3.70;78.95
67842;BME280;54642;59.126;37.876;2023-01-29T11:05:28;99173.84;;;-3.56;79.23
67842;BME280;54642;59.126;37.876;2023-01-29T11:08:15;99185.34;;;-3.41;79.23
67842;BME280;54642;59.126;37.876;2023-01-29T11:11:38;99125.00;;;-3.74;79.17
67842;BME280;54642;59.126;37.876;2023-01-29T11:13:53;99157.81;;;-3.55;79.20
67842;BME280;54642;59.126;37.876;2023-01-29T11:16:22;99153.84;;;-3.48;79.27
67842;BME280;54642;59.126;37.876;2023-01-29T11:18:59;99143.59;;;-3.51;79.38
67842;BME280;54642;59.126;37.876;2023-01-29T11:21:28;99108.28;;;-3.71;79.39
67842;BME280;54642;59.126;37.876;2023-01-29T11:24:10;99105.09;;;-3.65;79.63
67842;BME280;54642;59.126;37.876;2023-01-29T11:26:39;99087.75;;;-3.78;79.50
67842;BME280;54642;59.126;37.876;2023-01-29T11:29:35;99154.38;;;-3.33;79.67
67842;BME280;54642;59.126;37.876;2023-01-29T11:32:07;99158.75;;;-3.29;79.67
67842;BME280;54642;59.126;37.876;2023-01-29T11:34:55;99094.16;;;-3.64;79.63
67842;BME280;54642;59.126;37.876;2023-01-29T11:37:21;99104.63;;;-3.55;79.54
67842;BME280;54642;59.126;37.876;2023-01-29T11:39:48;99161.19;;;-3.32;79.63
67842;BME280;54642;59.126;37.876;2023-01-29T11:42:20;99165.72;;;-3.23;79.69
67842;BME280;54642;59.126;37.876;2023-01-29T11:44:47;99154.59;;;-3.27;79.38
67842;BME280;54642;59.126;37.876;2023-01-29T11:49:50;99116.19;;;-3.61;79.78
67842;BME280;54642;59.126;37.876;2023-01-29T11:52:22;99167.34;;;-3.25;79.93
67842;BME280;54642;59.126;37.876;2023-01-29T11:54:52;99183.34;;;-3.26;80.01
67842;BME280;54642;59.126;37.876;2023-01-29T11:57:30;99165.47;;;-3.29;80.00
67842;BME280;54642;59.126;37.876;2023-01-29T12:00:02;99160.22;;;-3.35;80.00
67842;BME280;54642;59.126;37.876;2023-01-29T12:02:41;99151.97;;;-3.30;80.04
67842;BME280;54642;59.126;37.876;2023-01-29T12:05:22;99160.41;;;-3.29;80.32
67842;BME280;54642;59.126;37.876;2023-01-29T12:07:55;99132.16;;;-3.40;80.10
67842;BME280;54642;59.126;37.876;2023-01-29T12:15:46;99165.97;;;-3.15;80.19
67842;BME280;54642;59.126;37.876;2023-01-29T12:20:58;99168.56;;;-3.14;80.47
67842;BME280;54642;59.126;37.876;2023-01-29T12:24:05;99168.69;;;-3.11;80.34
67842;BME280;54642;59.126;37.876;2023-01-29T12:26:49;99141.41;;;-3.18;80.26
67842;BME280;54642;59.126;37.876;2023-01-29T12:32:31;99137.72;;;-3.26;80.49
67842;BME280;54642;59.126;37.876;2023-01-29T12:35:29;99145.75;;;-3.14;80.27
67842;BME280;54642;59.126;37.876;2023-01-29T12:38:02;99148.28;;;-3.14;80.33
67842;BME280;54642;59.126;37.876;2023-01-29T12:40:39;99093.91;;;-3.48;80.44
67842;BME280;54642;59.126;37.876;2023-01-29T12:43:15;99115.63;;;-3.30;80.38
67842;BME280;54642;59.126;37.876;2023-01-29T12:45:44;99142.44;;;-3.13;80.49
67842;BME280;54642;59.126;37.876;2023-01-29T12:48:21;99149.22;;;-3.12;80.67
67842;BME280;54642;59.126;37.876;2023-01-29T12:50:49;99095.66;;;-3.47;80.45
67842;BME280;54642;59.126;37.876;2023-01-29T12:53:24;99146.72;;;-3.10;80.64
67842;BME280;54642;59.126;37.876;2023-01-29T12:55:59;99138.88;;;-3.18;80.63
67842;BME280;54642;59.126;37.876;2023-01-29T13:01:14;99147.59;;;-3.10;80.63
67842;BME280;54642;59.126;37.876;2023-01-29T13:03:46;99152.78;;;-3.07;80.79
67842;BME280;54642;59.126;37.876;2023-01-29T13:06:17;99149.44;;;-3.05;80.81
67842;BME280;54642;59.126;37.876;2023-01-29T13:08:56;99151.16;;;-3.04;80.83
67842;BME280;54642;59.126;37.876;2023-01-29T13:11:38;99150.34;;;-3.03;80.98
67842;BME280;54642;59.126;37.876;2023-01-29T13:14:30;99135.81;;;-3.09;80.78
67842;BME280;54642;59.126;37.876;2023-01-29T13:17:17;99135.19;;;-3.02;80.99
67842;BME280;54642;59.126;37.876;2023-01-29T13:19:49;99124.94;;;-3.05;80.98
67842;BME280;54642;59.126;37.876;2023-01-29T13:22:26;99102.56;;;-3.17;80.96
67842;BME280;54642;59.126;37.876;2023-01-29T13:24:53;99117.53;;;-2.99;80.98
67842;BME280;54642;59.126;37.876;2023-01-29T13:27:25;99128.66;;;-2.95;80.77
67842;BME280;54642;59.126;37.876;2023-01-29T13:29:54;99132.75;;;-2.99;80.78
67842;BME280;54642;59.126;37.876;2023-01-29T13:32:26;99120.25;;;-2.94;80.99
67842;BME280;54642;59.126;37.876;2023-01-29T13:34:55;99128.88;;;-2.89;80.74
67842;BME280;54642;59.126;37.876;2023-01-29T13:37:31;99122.06;;;-2.90;81.11
67842;BME280;54642;59.126;37.876;2023-01-29T13:39:59;99121.22;;;-2.91;81.05
67842;BME280;54642;59.126;37.876;2023-01-29T13:45:05;99137.56;;;-2.81;80.77
67842;BME280;54642;59.126;37.876;2023-01-29T13:47:34;99135.88;;;-2.82;81.07
67842;BME280;54642;59.126;37.876;2023-01-29T13:52:57;99129.84;;;-2.85;80.98
67842;BME280;54642;59.126;37.876;2023-01-29T13:55:38;99147.88;;;-2.76;81.07
67842;BME280;54642;59.126;37.876;2023-01-29T14:00:58;99142.88;;;-2.75;81.06
67842;BME280;54642;59.126;37.876;2023-01-29T14:05:59;99133.44;;;-2.79;81.17
67842;BME280;54642;59.126;37.876;2023-01-29T14:13:37;99126.81;;;-2.74;80.97
67842;BME280;54642;59.126;37.876;2023-01-29T14:18:31;99128.56;;;-2.73;81.11
67842;BME280;54642;59.126;37.876;2023-01-29T14:21:28;99126.81;;;-2.74;81.21
67842;BME280;54642;59.126;37.876;2023-01-29T14:23:55;99070.16;;;-3.01;81.08
67842;BME280;54642;59.126;37.876;2023-01-29T14:26:29;99121.88;;;-2.71;81.01
67842;BME280;54642;59.126;37.876;2023-01-29T14:28:59;99105.56;;;-2.77;81.58
67842;BME280;54642;59.126;37.876;2023-01-29T14:33:59;99083.25;;;-2.89;81.18
67842;BME280;54642;59.126;37.876;2023-01-29T14:36:26;99121.06;;;-2.70;81.40
67842;BME280;54642;59.126;37.876;2023-01-29T14:38:53;99121.97;;;-2.67;81.43
67842;BME280;54642;59.126;37.876;2023-01-29T14:41:31;99136.34;;;-2.68;81.28
67842;BME280;54642;59.126;37.876;2023-01-29T14:47:00;99123.59;;;-2.70;81.00
67842;BME280;54642;59.126;37.876;2023-01-29T14:49:52;99118.53;;;-2.70;81.81
67842;BME280;54642;59.126;37.876;2023-01-29T14:52:22;99128.50;;;-2.74;81.50
67842;BME280;54642;59.126;37.876;2023-01-29T14:54:49;99117.50;;;-2.75;81.52
67842;BME280;54642;59.126;37.876;2023-01-29T14:57:18;99109.06;;;-2.74;81.48
67842;BME280;54642;59.126;37.876;2023-01-29T14:59:57;99105.50;;;-2.80;81.58
67842;BME280;54642;59.126;37.876;2023-01-29T15:02:28;99095.25;;;-2.83;81.53
67842;BME280;54642;59.126;37.876;2023-01-29T15:05:05;99114.41;;;-2.66;81.63
67842;BME280;54642;59.126;37.876;2023-01-29T15:07:46;99087.81;;;-2.79;81.67
67842;BME280;54642;59.126;37.876;2023-01-29T15:10:19;99109.47;;;-2.63;81.60
67842;BME280;54642;59.126;37.876;2023-01-29T15:18:08;99100.16;;;-2.62;81.69
67842;BME280;54642;59.126;37.876;2023-01-29T15:20:41;99101.06;;;-2.60;81.51
67842;BME280;54642;59.126;37.876;2023-01-29T15:23:34;99088.22;;;-2.65;81.91